Grangeburg, Alabama
Current Conditions -  °F | °C
As of 1:53 AM on Thursday 27 Nov 2014 (Local Time) from KMAI Reporting Station
Clear Clear  
Wind Chill: 53°   Ceiling: Unl
Heat Index: 53°   Visibility: 10mi
Dew Point: 46°   Wind: 12mph
Humidity: 77%   Direction: 270°W
Pressure: 30.2"   Gusts: NA
Location:  31.0771°N, 85.1158°W
Report Text: KMAI 270753Z AUTO 27010KT 10SM CLR 12/08 A3020 RMK AO2 SLP223 T01170078
Loading
Personal Weather Stations






























Interactive Weather Map New forecast layout! Learn more

10-Day Weather Forecast

Advertisements
Track Severe Weather on mobile